sensor_id;sensor_type;location;lat;lon;timestamp;temperature;humidity
2220;DHT22;1116;51.502;7.414;2024-03-08T00:02:25;5.60;36.60
2220;DHT22;1116;51.502;7.414;2024-03-08T00:04:56;5.60;36.40
2220;DHT22;1116;51.502;7.414;2024-03-08T00:07:26;5.50;35.70
2220;DHT22;1116;51.502;7.414;2024-03-08T00:09:56;5.60;36.40
2220;DHT22;1116;51.502;7.414;2024-03-08T00:12:26;5.60;36.70
2220;DHT22;1116;51.502;7.414;2024-03-08T00:14:58;5.70;36.80
2220;DHT22;1116;51.502;7.414;2024-03-08T00:17:28;5.70;35.90
2220;DHT22;1116;51.502;7.414;2024-03-08T00:19:59;5.70;36.90
2220;DHT22;1116;51.502;7.414;2024-03-08T00:22:30;5.70;36.40
2220;DHT22;1116;51.502;7.414;2024-03-08T00:25:00;5.70;36.80
2220;DHT22;1116;51.502;7.414;2024-03-08T00:27:31;5.50;37.50
2220;DHT22;1116;51.502;7.414;2024-03-08T00:30:04;5.50;36.80
2220;DHT22;1116;51.502;7.414;2024-03-08T00:32:36;5.40;35.80
2220;DHT22;1116;51.502;7.414;2024-03-08T00:35:07;5.40;36.90
2220;DHT22;1116;51.502;7.414;2024-03-08T00:37:39;5.40;36.90
2220;DHT22;1116;51.502;7.414;2024-03-08T00:40:10;5.40;35.50
2220;DHT22;1116;51.502;7.414;2024-03-08T00:42:41;5.30;35.40
2220;DHT22;1116;51.502;7.414;2024-03-08T00:45:14;5.40;35.40
2220;DHT22;1116;51.502;7.414;2024-03-08T00:47:44;5.30;35.20
2220;DHT22;1116;51.502;7.414;2024-03-08T00:50:14;5.30;35.30
2220;DHT22;1116;51.502;7.414;2024-03-08T00:52:45;5.10;34.90
2220;DHT22;1116;51.502;7.414;2024-03-08T00:55:15;5.20;34.60
2220;DHT22;1116;51.502;7.414;2024-03-08T00:57:45;5.40;35.70
2220;DHT22;1116;51.502;7.414;2024-03-08T01:00:19;5.10;35.00
2220;DHT22;1116;51.502;7.414;2024-03-08T01:02:49;5.20;35.80
2220;DHT22;1116;51.502;7.414;2024-03-08T01:05:19;5.20;35.00
2220;DHT22;1116;51.502;7.414;2024-03-08T01:07:51;5.30;35.60
2220;DHT22;1116;51.502;7.414;2024-03-08T01:10:21;5.30;36.00
2220;DHT22;1116;51.502;7.414;2024-03-08T01:12:51;5.30;33.70
2220;DHT22;1116;51.502;7.414;2024-03-08T01:15:24;5.40;35.20
2220;DHT22;1116;51.502;7.414;2024-03-08T01:17:54;5.40;34.80
2220;DHT22;1116;51.502;7.414;2024-03-08T01:20:25;5.20;34.50
2220;DHT22;1116;51.502;7.414;2024-03-08T01:22:55;5.30;35.30
2220;DHT22;1116;51.502;7.414;2024-03-08T01:25:25;5.10;33.20
2220;DHT22;1116;51.502;7.414;2024-03-08T01:27:55;5.20;35.00
2220;DHT22;1116;51.502;7.414;2024-03-08T01:30:28;5.40;34.60
2220;DHT22;1116;51.502;7.414;2024-03-08T01:33:00;5.30;34.50
2220;DHT22;1116;51.502;7.414;2024-03-08T01:35:30;5.30;34.90
2220;DHT22;1116;51.502;7.414;2024-03-08T01:38:01;5.40;35.40
2220;DHT22;1116;51.502;7.414;2024-03-08T01:40:31;5.30;33.90
2220;DHT22;1116;51.502;7.414;2024-03-08T01:43:19;5.20;35.40
2220;DHT22;1116;51.502;7.414;2024-03-08T01:45:53;5.30;34.40
2220;DHT22;1116;51.502;7.414;2024-03-08T01:48:23;5.10;33.20
2220;DHT22;1116;51.502;7.414;2024-03-08T01:50:54;5.10;34.50
2220;DHT22;1116;51.502;7.414;2024-03-08T01:53:24;5.20;34.10
2220;DHT22;1116;51.502;7.414;2024-03-08T01:55:57;5.30;35.50
2220;DHT22;1116;51.502;7.414;2024-03-08T01:58:27;5.30;35.30
2220;DHT22;1116;51.502;7.414;2024-03-08T02:01:02;5.20;34.60
2220;DHT22;1116;51.502;7.414;2024-03-08T02:03:33;5.20;34.80
2220;DHT22;1116;51.502;7.414;2024-03-08T02:06:03;5.20;36.10
2220;DHT22;1116;51.502;7.414;2024-03-08T02:08:37;5.20;35.50
2220;DHT22;1116;51.502;7.414;2024-03-08T02:11:07;5.10;35.20
2220;DHT22;1116;51.502;7.414;2024-03-08T02:13:37;5.00;36.90
2220;DHT22;1116;51.502;7.414;2024-03-08T02:16:10;5.10;37.80
2220;DHT22;1116;51.502;7.414;2024-03-08T02:18:40;5.00;38.10
2220;DHT22;1116;51.502;7.414;2024-03-08T02:21:14;4.90;37.30
2220;DHT22;1116;51.502;7.414;2024-03-08T02:23:47;4.90;38.70
2220;DHT22;1116;51.502;7.414;2024-03-08T02:26:19;4.80;39.10
2220;DHT22;1116;51.502;7.414;2024-03-08T02:28:50;4.70;39.10
2220;DHT22;1116;51.502;7.414;2024-03-08T02:31:20;4.80;39.10
2220;DHT22;1116;51.502;7.414;2024-03-08T02:33:50;4.70;39.00
2220;DHT22;1116;51.502;7.414;2024-03-08T02:36:22;4.70;39.10
2220;DHT22;1116;51.502;7.414;2024-03-08T02:38:52;4.70;39.10
2220;DHT22;1116;51.502;7.414;2024-03-08T02:41:23;4.70;39.00
2220;DHT22;1116;51.502;7.414;2024-03-08T02:43:53;4.80;39.10
2220;DHT22;1116;51.502;7.414;2024-03-08T02:46:23;4.80;39.20
2220;DHT22;1116;51.502;7.414;2024-03-08T02:48:53;4.60;39.00
2220;DHT22;1116;51.502;7.414;2024-03-08T02:51:25;4.60;40.80
2220;DHT22;1116;51.502;7.414;2024-03-08T02:53:56;4.60;40.60
2220;DHT22;1116;51.502;7.414;2024-03-08T02:56:26;4.60;39.90
2220;DHT22;1116;51.502;7.414;2024-03-08T02:58:56;4.60;40.70
2220;DHT22;1116;51.502;7.414;2024-03-08T03:01:26;4.50;40.60
2220;DHT22;1116;51.502;7.414;2024-03-08T03:03:56;4.50;41.20
2220;DHT22;1116;51.502;7.414;2024-03-08T03:06:28;4.50;41.00
2220;DHT22;1116;51.502;7.414;2024-03-08T03:08:58;4.40;41.10
2220;DHT22;1116;51.502;7.414;2024-03-08T03:11:28;4.40;40.90
2220;DHT22;1116;51.502;7.414;2024-03-08T03:13:58;4.40;41.20
2220;DHT22;1116;51.502;7.414;2024-03-08T03:16:28;4.40;41.30
2220;DHT22;1116;51.502;7.414;2024-03-08T03:18:58;4.40;41.00
2220;DHT22;1116;51.502;7.414;2024-03-08T03:21:35;4.40;40.90
2220;DHT22;1116;51.502;7.414;2024-03-08T03:24:06;4.40;41.30
2220;DHT22;1116;51.502;7.414;2024-03-08T03:26:37;4.40;42.00
2220;DHT22;1116;51.502;7.414;2024-03-08T03:29:08;4.40;41.00
2220;DHT22;1116;51.502;7.414;2024-03-08T03:31:38;4.30;41.60
2220;DHT22;1116;51.502;7.414;2024-03-08T03:34:09;4.20;41.10
2220;DHT22;1116;51.502;7.414;2024-03-08T03:36:41;4.30;41.70
2220;DHT22;1116;51.502;7.414;2024-03-08T03:39:14;4.30;41.50
2220;DHT22;1116;51.502;7.414;2024-03-08T03:41:47;4.20;42.00
2220;DHT22;1116;51.502;7.414;2024-03-08T03:44:19;4.20;41.70
2220;DHT22;1116;51.502;7.414;2024-03-08T03:46:50;4.30;42.00
2220;DHT22;1116;51.502;7.414;2024-03-08T03:49:20;4.20;42.30
2220;DHT22;1116;51.502;7.414;2024-03-08T03:51:53;4.00;42.30
2220;DHT22;1116;51.502;7.414;2024-03-08T03:54:23;4.10;42.00
2220;DHT22;1116;51.502;7.414;2024-03-08T03:56:53;4.10;41.90
2220;DHT22;1116;51.502;7.414;2024-03-08T03:59:23;4.00;42.40
2220;DHT22;1116;51.502;7.414;2024-03-08T04:01:54;4.10;42.50
2220;DHT22;1116;51.502;7.414;2024-03-08T04:04:24;4.10;42.30
2220;DHT22;1116;51.502;7.414;2024-03-08T04:06:56;4.10;42.70
2220;DHT22;1116;51.502;7.414;2024-03-08T04:09:27;4.20;42.00
2220;DHT22;1116;51.502;7.414;2024-03-08T04:11:57;4.20;42.00
2220;DHT22;1116;51.502;7.414;2024-03-08T04:14:28;4.20;42.20
2220;DHT22;1116;51.502;7.414;2024-03-08T04:16:58;4.20;42.70
2220;DHT22;1116;51.502;7.414;2024-03-08T04:19:29;4.10;42.10
2220;DHT22;1116;51.502;7.414;2024-03-08T04:22:03;4.00;43.20
2220;DHT22;1116;51.502;7.414;2024-03-08T04:24:34;4.10;43.30
2220;DHT22;1116;51.502;7.414;2024-03-08T04:27:05;4.10;43.30
2220;DHT22;1116;51.502;7.414;2024-03-08T04:29:36;4.10;42.70
2220;DHT22;1116;51.502;7.414;2024-03-08T04:32:07;4.10;42.80
2220;DHT22;1116;51.502;7.414;2024-03-08T04:34:37;4.10;43.20
2220;DHT22;1116;51.502;7.414;2024-03-08T04:37:14;4.10;42.70
2220;DHT22;1116;51.502;7.414;2024-03-08T04:39:45;4.10;42.70
2220;DHT22;1116;51.502;7.414;2024-03-08T04:42:15;4.00;43.80
2220;DHT22;1116;51.502;7.414;2024-03-08T04:44:45;3.90;43.60
2220;DHT22;1116;51.502;7.414;2024-03-08T04:47:16;3.80;43.60
2220;DHT22;1116;51.502;7.414;2024-03-08T04:49:46;3.70;44.20
2220;DHT22;1116;51.502;7.414;2024-03-08T04:52:20;3.60;44.20
2220;DHT22;1116;51.502;7.414;2024-03-08T04:54:50;3.70;43.80
2220;DHT22;1116;51.502;7.414;2024-03-08T04:57:20;3.60;44.00
2220;DHT22;1116;51.502;7.414;2024-03-08T04:59:50;3.60;44.10
2220;DHT22;1116;51.502;7.414;2024-03-08T05:02:20;3.60;44.40
2220;DHT22;1116;51.502;7.414;2024-03-08T05:04:52;3.50;44.80
2220;DHT22;1116;51.502;7.414;2024-03-08T05:07:24;3.50;44.10
2220;DHT22;1116;51.502;7.414;2024-03-08T05:09:54;3.50;45.00
2220;DHT22;1116;51.502;7.414;2024-03-08T05:12:24;3.40;45.00
2220;DHT22;1116;51.502;7.414;2024-03-08T05:14:54;3.40;44.40
2220;DHT22;1116;51.502;7.414;2024-03-08T05:17:24;3.50;45.80
2220;DHT22;1116;51.502;7.414;2024-03-08T05:19:55;3.50;44.70
2220;DHT22;1116;51.502;7.414;2024-03-08T05:22:27;3.40;44.70
2220;DHT22;1116;51.502;7.414;2024-03-08T05:24:57;3.50;44.60
2220;DHT22;1116;51.502;7.414;2024-03-08T05:27:28;3.50;45.20
2220;DHT22;1116;51.502;7.414;2024-03-08T05:29:58;3.50;45.30
2220;DHT22;1116;51.502;7.414;2024-03-08T05:32:28;3.40;45.10
2220;DHT22;1116;51.502;7.414;2024-03-08T05:34:58;3.50;45.80
2220;DHT22;1116;51.502;7.414;2024-03-08T05:37:32;3.50;45.00
2220;DHT22;1116;51.502;7.414;2024-03-08T05:40:02;3.40;44.60
2220;DHT22;1116;51.502;7.414;2024-03-08T05:42:42;3.40;45.30
2220;DHT22;1116;51.502;7.414;2024-03-08T05:45:13;3.40;46.00
2220;DHT22;1116;51.502;7.414;2024-03-08T05:47:44;3.40;45.40
2220;DHT22;1116;51.502;7.414;2024-03-08T05:50:14;3.40;45.30
2220;DHT22;1116;51.502;7.414;2024-03-08T05:52:47;3.30;45.60
2220;DHT22;1116;51.502;7.414;2024-03-08T05:55:17;3.40;45.60
2220;DHT22;1116;51.502;7.414;2024-03-08T05:57:48;3.40;45.80
2220;DHT22;1116;51.502;7.414;2024-03-08T06:00:18;3.40;44.80
2220;DHT22;1116;51.502;7.414;2024-03-08T06:02:49;3.40;45.20
2220;DHT22;1116;51.502;7.414;2024-03-08T06:05:19;3.40;45.70
2220;DHT22;1116;51.502;7.414;2024-03-08T06:07:54;3.40;46.50
2220;DHT22;1116;51.502;7.414;2024-03-08T06:10:24;3.40;45.60
2220;DHT22;1116;51.502;7.414;2024-03-08T06:12:54;3.40;44.90
2220;DHT22;1116;51.502;7.414;2024-03-08T06:15:24;3.50;44.90
2220;DHT22;1116;51.502;7.414;2024-03-08T06:17:54;3.50;45.60
2220;DHT22;1116;51.502;7.414;2024-03-08T06:20:24;3.50;45.40
2220;DHT22;1116;51.502;7.414;2024-03-08T06:22:57;3.40;45.10
2220;DHT22;1116;51.502;7.414;2024-03-08T06:25:28;3.50;45.90
2220;DHT22;1116;51.502;7.414;2024-03-08T06:27:58;3.50;45.10
2220;DHT22;1116;51.502;7.414;2024-03-08T06:30:28;3.60;45.50
2220;DHT22;1116;51.502;7.414;2024-03-08T06:32:58;3.60;45.40
2220;DHT22;1116;51.502;7.414;2024-03-08T06:35:29;3.70;45.70
2220;DHT22;1116;51.502;7.414;2024-03-08T06:38:02;3.70;44.90
2220;DHT22;1116;51.502;7.414;2024-03-08T06:40:33;3.80;45.10
2220;DHT22;1116;51.502;7.414;2024-03-08T06:43:03;3.80;44.60
2220;DHT22;1116;51.502;7.414;2024-03-08T06:45:33;3.90;45.00
2220;DHT22;1116;51.502;7.414;2024-03-08T06:48:05;3.90;45.00
2220;DHT22;1116;51.502;7.414;2024-03-08T06:50:37;4.00;44.50
2220;DHT22;1116;51.502;7.414;2024-03-08T06:53:09;4.00;43.90
2220;DHT22;1116;51.502;7.414;2024-03-08T06:55:40;4.10;43.80
2220;DHT22;1116;51.502;7.414;2024-03-08T06:58:11;4.20;44.60
2220;DHT22;1116;51.502;7.414;2024-03-08T07:00:41;4.30;43.70
2220;DHT22;1116;51.502;7.414;2024-03-08T07:03:11;4.30;43.20
2220;DHT22;1116;51.502;7.414;2024-03-08T07:05:44;4.40;43.30
2220;DHT22;1116;51.502;7.414;2024-03-08T07:08:17;4.40;43.00
2220;DHT22;1116;51.502;7.414;2024-03-08T07:10:49;4.50;42.40
2220;DHT22;1116;51.502;7.414;2024-03-08T07:13:19;4.50;42.40
2220;DHT22;1116;51.502;7.414;2024-03-08T07:15:49;4.60;42.20
2220;DHT22;1116;51.502;7.414;2024-03-08T07:18:19;4.70;42.50
2220;DHT22;1116;51.502;7.414;2024-03-08T07:20:50;4.80;42.40
2220;DHT22;1116;51.502;7.414;2024-03-08T07:23:23;4.90;41.60
2220;DHT22;1116;51.502;7.414;2024-03-08T07:26:05;5.10;41.10
2220;DHT22;1116;51.502;7.414;2024-03-08T07:28:35;5.20;40.80
2220;DHT22;1116;51.502;7.414;2024-03-08T07:31:05;5.30;39.60
2220;DHT22;1116;51.502;7.414;2024-03-08T07:33:48;5.20;39.50
2220;DHT22;1116;51.502;7.414;2024-03-08T07:36:20;5.20;39.50
2220;DHT22;1116;51.502;7.414;2024-03-08T07:38:53;5.10;39.40
2220;DHT22;1116;51.502;7.414;2024-03-08T07:41:24;5.40;39.70
2220;DHT22;1116;51.502;7.414;2024-03-08T07:43:54;5.50;38.90
2220;DHT22;1116;51.502;7.414;2024-03-08T07:46:24;6.60;38.40
2220;DHT22;1116;51.502;7.414;2024-03-08T07:48:58;8.30;30.00
2220;DHT22;1116;51.502;7.414;2024-03-08T07:51:31;10.10;26.70
2220;DHT22;1116;51.502;7.414;2024-03-08T07:54:04;10.90;21.20
2220;DHT22;1116;51.502;7.414;2024-03-08T07:56:36;11.60;21.60
2220;DHT22;1116;51.502;7.414;2024-03-08T07:59:06;12.40;18.00
2220;DHT22;1116;51.502;7.414;2024-03-08T08:01:38;12.60;17.60
2220;DHT22;1116;51.502;7.414;2024-03-08T08:04:08;13.80;16.00
2220;DHT22;1116;51.502;7.414;2024-03-08T08:06:39;14.10;14.20
2220;DHT22;1116;51.502;7.414;2024-03-08T08:09:13;14.40;13.50
2220;DHT22;1116;51.502;7.414;2024-03-08T08:11:55;15.30;14.20
2220;DHT22;1116;51.502;7.414;2024-03-08T08:14:25;15.20;12.20
2220;DHT22;1116;51.502;7.414;2024-03-08T08:16:56;15.80;10.40
2220;DHT22;1116;51.502;7.414;2024-03-08T08:19:30;15.90;9.40
2220;DHT22;1116;51.502;7.414;2024-03-08T08:22:02;15.90;9.50
2220;DHT22;1116;51.502;7.414;2024-03-08T08:24:38;15.80;9.30
2220;DHT22;1116;51.502;7.414;2024-03-08T08:27:08;16.50;11.40
2220;DHT22;1116;51.502;7.414;2024-03-08T08:29:39;16.40;9.70
2220;DHT22;1116;51.502;7.414;2024-03-08T08:32:10;15.80;8.30
2220;DHT22;1116;51.502;7.414;2024-03-08T08:34:40;16.20;8.70
2220;DHT22;1116;51.502;7.414;2024-03-08T08:37:10;16.40;9.80
2220;DHT22;1116;51.502;7.414;2024-03-08T08:39:43;17.00;8.20
2220;DHT22;1116;51.502;7.414;2024-03-08T08:42:13;17.40;7.10
2220;DHT22;1116;51.502;7.414;2024-03-08T08:44:44;17.20;6.70
2220;DHT22;1116;51.502;7.414;2024-03-08T08:47:19;17.20;6.60
2220;DHT22;1116;51.502;7.414;2024-03-08T08:49:49;16.40;6.10
2220;DHT22;1116;51.502;7.414;2024-03-08T08:52:19;16.20;8.10
2220;DHT22;1116;51.502;7.414;2024-03-08T08:54:52;16.90;7.40
2220;DHT22;1116;51.502;7.414;2024-03-08T08:57:23;17.60;6.60
2220;DHT22;1116;51.502;7.414;2024-03-08T08:59:54;16.70;4.60
2220;DHT22;1116;51.502;7.414;2024-03-08T09:02:25;17.60;6.70
2220;DHT22;1116;51.502;7.414;2024-03-08T09:04:55;18.30;6.80
2220;DHT22;1116;51.502;7.414;2024-03-08T09:07:25;18.80;5.30
2220;DHT22;1116;51.502;7.414;2024-03-08T09:09:57;19.30;6.50
2220;DHT22;1116;51.502;7.414;2024-03-08T09:12:33;19.60;3.70
2220;DHT22;1116;51.502;7.414;2024-03-08T09:15:05;18.90;3.50
2220;DHT22;1116;51.502;7.414;2024-03-08T09:17:39;18.50;3.90
2220;DHT22;1116;51.502;7.414;2024-03-08T09:20:11;18.40;4.80
2220;DHT22;1116;51.502;7.414;2024-03-08T09:22:43;18.60;5.70
2220;DHT22;1116;51.502;7.414;2024-03-08T09:25:17;17.90;5.40
2220;DHT22;1116;51.502;7.414;2024-03-08T09:27:47;18.00;5.60
2220;DHT22;1116;51.502;7.414;2024-03-08T09:30:17;18.30;4.80
2220;DHT22;1116;51.502;7.414;2024-03-08T09:32:48;18.90;5.50
2220;DHT22;1116;51.502;7.414;2024-03-08T09:35:19;19.00;3.00
2220;DHT22;1116;51.502;7.414;2024-03-08T09:37:49;19.50;2.50
2220;DHT22;1116;51.502;7.414;2024-03-08T09:40:22;19.10;3.80
2220;DHT22;1116;51.502;7.414;2024-03-08T09:42:53;19.60;4.00
2220;DHT22;1116;51.502;7.414;2024-03-08T09:45:25;19.30;4.10
2220;DHT22;1116;51.502;7.414;2024-03-08T09:47:56;19.00;3.40
2220;DHT22;1116;51.502;7.414;2024-03-08T09:50:26;19.30;3.70
2220;DHT22;1116;51.502;7.414;2024-03-08T09:52:56;19.60;2.60
2220;DHT22;1116;51.502;7.414;2024-03-08T09:55:30;19.10;4.20
2220;DHT22;1116;51.502;7.414;2024-03-08T09:58:06;19.40;2.10
2220;DHT22;1116;51.502;7.414;2024-03-08T10:00:48;19.40;3.70
2220;DHT22;1116;51.502;7.414;2024-03-08T10:03:19;19.50;3.50
2220;DHT22;1116;51.502;7.414;2024-03-08T10:05:50;19.60;1.30
2220;DHT22;1116;51.502;7.414;2024-03-08T10:08:20;20.30;1.40
2220;DHT22;1116;51.502;7.414;2024-03-08T10:10:53;20.20;1.70
2220;DHT22;1116;51.502;7.414;2024-03-08T10:13:26;20.80;2.30
2220;DHT22;1116;51.502;7.414;2024-03-08T10:15:57;20.50;1.00
2220;DHT22;1116;51.502;7.414;2024-03-08T10:18:27;20.20;1.70
2220;DHT22;1116;51.502;7.414;2024-03-08T10:21:04;20.60;2.70
2220;DHT22;1116;51.502;7.414;2024-03-08T10:23:37;20.60;2.00
2220;DHT22;1116;51.502;7.414;2024-03-08T10:26:14;20.40;1.10
2220;DHT22;1116;51.502;7.414;2024-03-08T10:28:46;20.40;1.00
2220;DHT22;1116;51.502;7.414;2024-03-08T10:31:18;19.70;2.50
2220;DHT22;1116;51.502;7.414;2024-03-08T10:33:48;19.00;1.00
2220;DHT22;1116;51.502;7.414;2024-03-08T10:36:19;19.90;2.80
2220;DHT22;1116;51.502;7.414;2024-03-08T10:38:51;19.90;2.30
2220;DHT22;1116;51.502;7.414;2024-03-08T10:41:24;20.70;2.20
2220;DHT22;1116;51.502;7.414;2024-03-08T10:44:09;20.20;1.00
2220;DHT22;1116;51.502;7.414;2024-03-08T10:46:53;20.30;1.80
2220;DHT22;1116;51.502;7.414;2024-03-08T10:49:38;20.90;3.20
2220;DHT22;1116;51.502;7.414;2024-03-08T10:52:09;20.80;2.20
2220;DHT22;1116;51.502;7.414;2024-03-08T10:54:42;21.60;3.30
2220;DHT22;1116;51.502;7.414;2024-03-08T10:57:18;21.70;1.00
2220;DHT22;1116;51.502;7.414;2024-03-08T10:59:51;21.70;1.30
2220;DHT22;1116;51.502;7.414;2024-03-08T11:02:25;20.60;1.20
2220;DHT22;1116;51.502;7.414;2024-03-08T11:04:56;19.20;4.30
2220;DHT22;1116;51.502;7.414;2024-03-08T11:07:27;17.90;4.10
2220;DHT22;1116;51.502;7.414;2024-03-08T11:09:59;17.50;5.70
2220;DHT22;1116;51.502;7.414;2024-03-08T11:12:38;17.50;5.20
2220;DHT22;1116;51.502;7.414;2024-03-08T11:15:10;17.50;5.90
2220;DHT22;1116;51.502;7.414;2024-03-08T11:17:45;17.70;7.00
2220;DHT22;1116;51.502;7.414;2024-03-08T11:20:18;17.30;8.50
2220;DHT22;1116;51.502;7.414;2024-03-08T11:22:50;17.10;7.30
2220;DHT22;1116;51.502;7.414;2024-03-08T11:25:35;17.30;9.30
2220;DHT22;1116;51.502;7.414;2024-03-08T11:28:13;17.70;9.50
2220;DHT22;1116;51.502;7.414;2024-03-08T11:31:21;17.80;9.50
2220;DHT22;1116;51.502;7.414;2024-03-08T11:33:53;17.50;8.60
2220;DHT22;1116;51.502;7.414;2024-03-08T11:36:25;18.10;7.90
2220;DHT22;1116;51.502;7.414;2024-03-08T11:38:57;18.40;6.00
2220;DHT22;1116;51.502;7.414;2024-03-08T11:41:36;18.60;6.00
2220;DHT22;1116;51.502;7.414;2024-03-08T11:44:11;18.40;6.70
2220;DHT22;1116;51.502;7.414;2024-03-08T11:46:43;18.70;7.90
2220;DHT22;1116;51.502;7.414;2024-03-08T11:49:14;19.50;6.70
2220;DHT22;1116;51.502;7.414;2024-03-08T11:51:45;19.80;4.90
2220;DHT22;1116;51.502;7.414;2024-03-08T11:54:15;19.00;3.10
2220;DHT22;1116;51.502;7.414;2024-03-08T11:56:45;19.20;1.10
2220;DHT22;1116;51.502;7.414;2024-03-08T11:59:19;19.70;1.40
2220;DHT22;1116;51.502;7.414;2024-03-08T12:02:02;19.10;1.00
2220;DHT22;1116;51.502;7.414;2024-03-08T12:04:33;19.40;1.50
2220;DHT22;1116;51.502;7.414;2024-03-08T12:07:03;19.50;1.20
2220;DHT22;1116;51.502;7.414;2024-03-08T12:09:36;19.70;2.80
2220;DHT22;1116;51.502;7.414;2024-03-08T12:12:07;19.10;1.00
2220;DHT22;1116;51.502;7.414;2024-03-08T12:14:43;19.10;1.00
2220;DHT22;1116;51.502;7.414;2024-03-08T12:17:14;18.30;1.20
2220;DHT22;1116;51.502;7.414;2024-03-08T12:19:46;18.30;3.40
2220;DHT22;1116;51.502;7.414;2024-03-08T12:22:16;18.30;1.00
2220;DHT22;1116;51.502;7.414;2024-03-08T12:25:03;19.30;3.40
2220;DHT22;1116;51.502;7.414;2024-03-08T12:27:37;18.30;2.20
2220;DHT22;1116;51.502;7.414;2024-03-08T12:30:22;18.00;3.30
2220;DHT22;1116;51.502;7.414;2024-03-08T12:32:55;18.00;1.40
2220;DHT22;1116;51.502;7.414;2024-03-08T12:35:30;16.70;4.10
2220;DHT22;1116;51.502;7.414;2024-03-08T12:38:00;17.50;4.30
2220;DHT22;1116;51.502;7.414;2024-03-08T12:40:31;17.50;2.40
2220;DHT22;1116;51.502;7.414;2024-03-08T12:43:07;17.50;1.70
2220;DHT22;1116;51.502;7.414;2024-03-08T12:45:41;17.80;2.50
2220;DHT22;1116;51.502;7.414;2024-03-08T12:48:13;16.70;2.60
2220;DHT22;1116;51.502;7.414;2024-03-08T12:50:44;17.40;4.00
2220;DHT22;1116;51.502;7.414;2024-03-08T12:53:15;17.70;3.20
2220;DHT22;1116;51.502;7.414;2024-03-08T12:55:45;18.30;4.20
2220;DHT22;1116;51.502;7.414;2024-03-08T12:58:15;18.20;2.20
2220;DHT22;1116;51.502;7.414;2024-03-08T13:00:50;17.80;3.40
2220;DHT22;1116;51.502;7.414;2024-03-08T13:03:20;18.20;3.30
2220;DHT22;1116;51.502;7.414;2024-03-08T13:05:50;18.30;4.30
2220;DHT22;1116;51.502;7.414;2024-03-08T13:08:20;17.80;4.40
2220;DHT22;1116;51.502;7.414;2024-03-08T13:10:51;17.80;3.20
2220;DHT22;1116;51.502;7.414;2024-03-08T13:13:22;18.00;5.70
2220;DHT22;1116;51.502;7.414;2024-03-08T13:15:55;17.70;2.30
2220;DHT22;1116;51.502;7.414;2024-03-08T13:18:28;17.90;3.10
2220;DHT22;1116;51.502;7.414;2024-03-08T13:20:58;17.80;2.40
2220;DHT22;1116;51.502;7.414;2024-03-08T13:23:31;17.50;3.50
2220;DHT22;1116;51.502;7.414;2024-03-08T13:26:06;17.40;3.80
2220;DHT22;1116;51.502;7.414;2024-03-08T13:28:39;17.80;3.60
2220;DHT22;1116;51.502;7.414;2024-03-08T13:31:11;17.90;2.20
2220;DHT22;1116;51.502;7.414;2024-03-08T13:33:42;17.90;1.80
2220;DHT22;1116;51.502;7.414;2024-03-08T13:36:13;18.50;4.00
2220;DHT22;1116;51.502;7.414;2024-03-08T13:38:48;17.50;1.30
2220;DHT22;1116;51.502;7.414;2024-03-08T13:41:18;18.40;1.40
2220;DHT22;1116;51.502;7.414;2024-03-08T13:43:52;19.10;1.00
2220;DHT22;1116;51.502;7.414;2024-03-08T13:46:25;19.20;1.00
2220;DHT22;1116;51.502;7.414;2024-03-08T13:48:56;18.90;1.00
2220;DHT22;1116;51.502;7.414;2024-03-08T13:51:26;18.50;1.00
2220;DHT22;1116;51.502;7.414;2024-03-08T13:53:57;18.60;2.60
2220;DHT22;1116;51.502;7.414;2024-03-08T13:56:28;18.20;2.00
2220;DHT22;1116;51.502;7.414;2024-03-08T13:58:58;17.80;1.70
2220;DHT22;1116;51.502;7.414;2024-03-08T14:01:32;17.70;3.80
2220;DHT22;1116;51.502;7.414;2024-03-08T14:04:03;17.90;3.40
2220;DHT22;1116;51.502;7.414;2024-03-08T14:06:35;17.30;4.40
2220;DHT22;1116;51.502;7.414;2024-03-08T14:09:05;17.00;3.60
2220;DHT22;1116;51.502;7.414;2024-03-08T14:11:36;16.70;4.60
2220;DHT22;1116;51.502;7.414;2024-03-08T14:14:06;16.20;6.10
2220;DHT22;1116;51.502;7.414;2024-03-08T14:16:38;16.10;6.90
2220;DHT22;1116;51.502;7.414;2024-03-08T14:19:10;15.90;6.40
2220;DHT22;1116;51.502;7.414;2024-03-08T14:21:42;16.00;5.60
2220;DHT22;1116;51.502;7.414;2024-03-08T14:24:12;15.70;6.10
2220;DHT22;1116;51.502;7.414;2024-03-08T14:26:42;15.50;6.80
2220;DHT22;1116;51.502;7.414;2024-03-08T14:29:13;15.30;6.60
2220;DHT22;1116;51.502;7.414;2024-03-08T14:31:47;15.40;7.30
2220;DHT22;1116;51.502;7.414;2024-03-08T14:34:17;15.60;7.10
2220;DHT22;1116;51.502;7.414;2024-03-08T14:36:48;15.30;7.20
2220;DHT22;1116;51.502;7.414;2024-03-08T14:39:18;14.40;7.60
2220;DHT22;1116;51.502;7.414;2024-03-08T14:41:53;14.60;10.10
2220;DHT22;1116;51.502;7.414;2024-03-08T14:44:25;14.60;8.40
2220;DHT22;1116;51.502;7.414;2024-03-08T14:46:59;14.70;9.30
2220;DHT22;1116;51.502;7.414;2024-03-08T14:49:32;14.60;8.80
2220;DHT22;1116;51.502;7.414;2024-03-08T14:52:05;14.50;9.80
2220;DHT22;1116;51.502;7.414;2024-03-08T14:54:54;14.10;9.50
2220;DHT22;1116;51.502;7.414;2024-03-08T14:57:25;14.10;9.50
2220;DHT22;1116;51.502;7.414;2024-03-08T14:59:55;14.30;11.90
2220;DHT22;1116;51.502;7.414;2024-03-08T15:02:32;14.00;10.10
2220;DHT22;1116;51.502;7.414;2024-03-08T15:05:04;14.20;9.90
2220;DHT22;1116;51.502;7.414;2024-03-08T15:07:38;14.00;9.90
2220;DHT22;1116;51.502;7.414;2024-03-08T15:10:09;13.80;10.20
2220;DHT22;1116;51.502;7.414;2024-03-08T15:12:45;13.70;10.70
2220;DHT22;1116;51.502;7.414;2024-03-08T15:15:18;13.60;14.50
2220;DHT22;1116;51.502;7.414;2024-03-08T15:17:52;13.60;12.90
2220;DHT22;1116;51.502;7.414;2024-03-08T15:20:25;13.60;12.90
2220;DHT22;1116;51.502;7.414;2024-03-08T15:22:57;13.60;11.60
2220;DHT22;1116;51.502;7.414;2024-03-08T15:25:28;13.50;12.80
2220;DHT22;1116;51.502;7.414;2024-03-08T15:27:58;13.60;11.60
2220;DHT22;1116;51.502;7.414;2024-03-08T15:30:31;13.50;11.80
2220;DHT22;1116;51.502;7.414;2024-03-08T15:33:05;13.30;12.30
2220;DHT22;1116;51.502;7.414;2024-03-08T15:35:37;13.20;13.40
2220;DHT22;1116;51.502;7.414;2024-03-08T15:38:07;12.90;12.40
2220;DHT22;1116;51.502;7.414;2024-03-08T15:40:37;12.90;12.40
2220;DHT22;1116;51.502;7.414;2024-03-08T15:43:08;12.90;12.90
2220;DHT22;1116;51.502;7.414;2024-03-08T15:45:38;12.90;14.00
2220;DHT22;1116;51.502;7.414;2024-03-08T15:48:10;13.10;13.10
2220;DHT22;1116;51.502;7.414;2024-03-08T15:50:41;12.90;12.40
2220;DHT22;1116;51.502;7.414;2024-03-08T15:53:11;13.00;13.00
2220;DHT22;1116;51.502;7.414;2024-03-08T15:55:42;13.00;13.10
2220;DHT22;1116;51.502;7.414;2024-03-08T15:58:13;13.10;13.70
2220;DHT22;1116;51.502;7.414;2024-03-08T16:00:44;12.80;12.40
2220;DHT22;1116;51.502;7.414;2024-03-08T16:03:22;12.80;13.70
2220;DHT22;1116;51.502;7.414;2024-03-08T16:05:52;12.60;13.60
2220;DHT22;1116;51.502;7.414;2024-03-08T16:08:22;12.60;15.10
2220;DHT22;1116;51.502;7.414;2024-03-08T16:10:53;12.70;14.40
2220;DHT22;1116;51.502;7.414;2024-03-08T16:13:25;12.70;14.90
2220;DHT22;1116;51.502;7.414;2024-03-08T16:15:56;12.60;12.70
2220;DHT22;1116;51.502;7.414;2024-03-08T16:18:30;12.50;14.70
2220;DHT22;1116;51.502;7.414;2024-03-08T16:21:01;12.30;13.40
2220;DHT22;1116;51.502;7.414;2024-03-08T16:23:34;12.40;13.50
2220;DHT22;1116;51.502;7.414;2024-03-08T16:26:05;12.40;14.40
2220;DHT22;1116;51.502;7.414;2024-03-08T16:28:36;12.50;13.80
2220;DHT22;1116;51.502;7.414;2024-03-08T16:31:11;12.50;14.10
2220;DHT22;1116;51.502;7.414;2024-03-08T16:33:44;12.30;13.40
2220;DHT22;1116;51.502;7.414;2024-03-08T16:36:14;12.30;14.10
2220;DHT22;1116;51.502;7.414;2024-03-08T16:38:44;12.30;13.50
2220;DHT22;1116;51.502;7.414;2024-03-08T16:41:15;12.30;14.00
2220;DHT22;1116;51.502;7.414;2024-03-08T16:43:45;12.30;13.70
2220;DHT22;1116;51.502;7.414;2024-03-08T16:46:16;12.30;14.20